Terminal Aerodrome Forecast
Issued by NWS Quad Cities IA IL

Home | Current Version | Previous Version | Text Only | Print | Product List | Glossary On
Versions: 1 2 3 4 5 6 7 8 9 10 11 12 13 14 15 16 17 18 19 20 21 22 23 24 25 26 27 28 29 30 31 32 33 34 35 36
000
FTUS43 KDVN 280520
TAFDBQ
TAF
KDBQ 280520Z 2806/2906 18013KT P6SM SCT025 OVC100
      TEMPO 2806/2809 4SM TSRA BR BKN025CB
     FM280900 20005KT 6SM BR VCSH BKN025
     FM281400 22013KT P6SM BKN035 PROB30 2821/2901 4SM TSRA BKN025CB
     FM290100 19006KT P6SM VCSH BKN040=

USA.gov is the U.S. government's official web portal to all federal, state and local government web resources and services.